sensor_id;sensor_type;location;lat;lon;timestamp;pressure;altitude;pressure_sealevel;temperature;humidity
86044;BME280;76719;49.832;8.748;2024-03-08T00:00:32;99438.13;;;2.74;68.55
86044;BME280;76719;49.832;8.748;2024-03-08T00:05:34;99436.63;;;2.84;67.75
86044;BME280;76719;49.832;8.748;2024-03-08T00:10:36;99430.25;;;2.72;67.54
86044;BME280;76719;49.832;8.748;2024-03-08T00:15:39;99428.19;;;2.78;66.67
86044;BME280;76719;49.832;8.748;2024-03-08T00:20:41;99422.50;;;2.84;66.50
86044;BME280;76719;49.832;8.748;2024-03-08T00:25:45;99412.25;;;2.78;66.55
86044;BME280;76719;49.832;8.748;2024-03-08T00:30:46;99409.50;;;2.79;65.89
86044;BME280;76719;49.832;8.748;2024-03-08T00:35:48;99401.22;;;2.69;65.66
86044;BME280;76719;49.832;8.748;2024-03-08T00:40:51;99403.03;;;2.69;66.04
86044;BME280;76719;49.832;8.748;2024-03-08T00:45:52;99387.38;;;2.64;65.95
86044;BME280;76719;49.832;8.748;2024-03-08T00:50:53;99387.84;;;2.57;66.14
86044;BME280;76719;49.832;8.748;2024-03-08T00:55:56;99349.19;;;2.37;66.53
86044;BME280;76719;49.832;8.748;2024-03-08T01:00:57;99371.66;;;2.45;67.17
86044;BME280;76719;49.832;8.748;2024-03-08T01:05:59;99371.66;;;2.45;67.11
86044;BME280;76719;49.832;8.748;2024-03-08T01:11:03;99365.88;;;2.39;66.98
86044;BME280;76719;49.832;8.748;2024-03-08T01:16:05;99359.91;;;2.35;66.76
86044;BME280;76719;49.832;8.748;2024-03-08T01:21:07;99355.22;;;2.24;67.48
86044;BME280;76719;49.832;8.748;2024-03-08T01:26:09;99343.75;;;2.24;66.80
86044;BME280;76719;49.832;8.748;2024-03-08T01:31:11;99340.94;;;2.27;66.90
86044;BME280;76719;49.832;8.748;2024-03-08T01:36:13;99334.84;;;2.25;66.82
86044;BME280;76719;49.832;8.748;2024-03-08T01:41:17;99330.00;;;2.17;67.64
86044;BME280;76719;49.832;8.748;2024-03-08T01:46:20;99322.50;;;2.10;67.65
86044;BME280;76719;49.832;8.748;2024-03-08T01:51:23;99320.53;;;1.97;68.23
86044;BME280;76719;49.832;8.748;2024-03-08T01:56:26;99330.47;;;1.94;68.33
86044;BME280;76719;49.832;8.748;2024-03-08T02:01:27;99322.63;;;1.92;67.87
86044;BME280;76719;49.832;8.748;2024-03-08T02:06:29;99305.00;;;1.91;67.98
86044;BME280;76719;49.832;8.748;2024-03-08T02:11:42;99307.81;;;1.88;68.10
86044;BME280;76719;49.832;8.748;2024-03-08T02:16:44;99304.66;;;1.82;68.12
86044;BME280;76719;49.832;8.748;2024-03-08T02:21:47;99307.09;;;1.70;68.84
86044;BME280;76719;49.832;8.748;2024-03-08T02:26:48;99303.31;;;1.59;70.08
86044;BME280;76719;49.832;8.748;2024-03-08T02:31:50;99307.50;;;1.47;70.60
86044;BME280;76719;49.832;8.748;2024-03-08T02:36:53;99304.16;;;1.43;70.52
86044;BME280;76719;49.832;8.748;2024-03-08T02:41:56;99301.94;;;1.36;70.41
86044;BME280;76719;49.832;8.748;2024-03-08T02:46:58;99291.66;;;1.14;72.23
86044;BME280;76719;49.832;8.748;2024-03-08T02:52:01;99298.31;;;1.05;72.01
86044;BME280;76719;49.832;8.748;2024-03-08T02:57:02;99289.34;;;0.92;73.29
86044;BME280;76719;49.832;8.748;2024-03-08T03:02:04;99295.97;;;0.83;73.50
86044;BME280;76719;49.832;8.748;2024-03-08T03:07:08;99293.97;;;0.71;73.87
86044;BME280;76719;49.832;8.748;2024-03-08T03:12:09;99293.16;;;0.53;74.35
86044;BME280;76719;49.832;8.748;2024-03-08T03:17:10;99281.25;;;0.44;74.70
86044;BME280;76719;49.832;8.748;2024-03-08T03:22:13;99278.06;;;0.38;75.04
86044;BME280;76719;49.832;8.748;2024-03-08T03:27:16;99269.22;;;0.39;75.04
86044;BME280;76719;49.832;8.748;2024-03-08T03:32:17;99266.16;;;0.46;74.73
86044;BME280;76719;49.832;8.748;2024-03-08T03:37:21;99261.81;;;0.45;74.84
86044;BME280;76719;49.832;8.748;2024-03-08T03:42:23;99255.56;;;0.46;75.06
86044;BME280;76719;49.832;8.748;2024-03-08T03:47:26;99254.47;;;0.50;75.14
86044;BME280;76719;49.832;8.748;2024-03-08T03:52:29;99259.56;;;0.38;75.20
86044;BME280;76719;49.832;8.748;2024-03-08T03:57:31;99258.25;;;0.29;75.04
86044;BME280;76719;49.832;8.748;2024-03-08T04:02:33;99244.19;;;0.29;75.59
86044;BME280;76719;49.832;8.748;2024-03-08T04:07:36;99251.34;;;0.27;75.81
86044;BME280;76719;49.832;8.748;2024-03-08T04:12:38;99254.38;;;0.19;75.76
86044;BME280;76719;49.832;8.748;2024-03-08T04:17:39;99242.63;;;0.07;76.40
86044;BME280;76719;49.832;8.748;2024-03-08T04:22:42;99242.78;;;0.04;76.34
86044;BME280;76719;49.832;8.748;2024-03-08T04:27:44;99244.66;;;0.02;76.74
86044;BME280;76719;49.832;8.748;2024-03-08T04:32:47;99248.31;;;-0.01;76.89
86044;BME280;76719;49.832;8.748;2024-03-08T04:37:50;99250.19;;;-0.03;76.62
86044;BME280;76719;49.832;8.748;2024-03-08T04:42:52;99240.22;;;-0.15;77.45
86044;BME280;76719;49.832;8.748;2024-03-08T04:47:53;99237.19;;;-0.24;77.88
86044;BME280;76719;49.832;8.748;2024-03-08T04:52:56;99234.84;;;-0.31;77.63
86044;BME280;76719;49.832;8.748;2024-03-08T04:57:57;99234.84;;;-0.31;78.28
86044;BME280;76719;49.832;8.748;2024-03-08T05:02:59;99225.22;;;-0.32;78.46
86044;BME280;76719;49.832;8.748;2024-03-08T05:08:02;99216.13;;;-0.26;78.59
86044;BME280;76719;49.832;8.748;2024-03-08T05:13:03;99207.91;;;-0.20;78.62
86044;BME280;76719;49.832;8.748;2024-03-08T05:18:05;99201.53;;;-0.16;78.94
86044;BME280;76719;49.832;8.748;2024-03-08T05:23:08;99198.66;;;-0.11;78.87
86044;BME280;76719;49.832;8.748;2024-03-08T05:28:09;99200.94;;;-0.04;78.70
86044;BME280;76719;49.832;8.748;2024-03-08T05:33:11;99204.47;;;-0.05;79.16
86044;BME280;76719;49.832;8.748;2024-03-08T05:38:16;99195.78;;;-0.07;78.96
86044;BME280;76719;49.832;8.748;2024-03-08T05:43:17;99193.59;;;0.02;78.83
86044;BME280;76719;49.832;8.748;2024-03-08T05:48:19;99188.72;;;-0.06;79.25
86044;BME280;76719;49.832;8.748;2024-03-08T05:53:23;99176.28;;;-0.04;79.05
86044;BME280;76719;49.832;8.748;2024-03-08T05:58:25;99180.69;;;-0.05;79.37
86044;BME280;76719;49.832;8.748;2024-03-08T06:03:26;99170.59;;;-0.14;79.03
86044;BME280;76719;49.832;8.748;2024-03-08T06:08:29;99187.94;;;-0.08;79.36
86044;BME280;76719;49.832;8.748;2024-03-08T06:13:30;99187.00;;;-0.07;79.86
86044;BME280;76719;49.832;8.748;2024-03-08T06:18:32;99184.59;;;0.06;79.09
86044;BME280;76719;49.832;8.748;2024-03-08T06:23:35;99181.72;;;0.10;78.98
86044;BME280;76719;49.832;8.748;2024-03-08T06:28:38;99168.50;;;0.10;79.11
86044;BME280;76719;49.832;8.748;2024-03-08T06:33:39;99173.69;;;0.12;78.72
86044;BME280;76719;49.832;8.748;2024-03-08T06:38:42;99157.84;;;0.12;78.67
86044;BME280;76719;49.832;8.748;2024-03-08T06:43:47;99170.09;;;0.30;78.97
86044;BME280;76719;49.832;8.748;2024-03-08T06:48:51;99175.50;;;0.44;78.41
86044;BME280;76719;49.832;8.748;2024-03-08T06:53:54;99173.88;;;0.58;78.10
86044;BME280;76719;49.832;8.748;2024-03-08T06:58:55;99167.44;;;0.79;77.15
86044;BME280;76719;49.832;8.748;2024-03-08T07:03:57;99164.09;;;0.91;76.99
86044;BME280;76719;49.832;8.748;2024-03-08T07:09:00;99159.31;;;1.14;75.76
86044;BME280;76719;49.832;8.748;2024-03-08T07:14:02;99157.50;;;1.30;75.56
86044;BME280;76719;49.832;8.748;2024-03-08T07:19:06;99158.16;;;1.49;75.04
86044;BME280;76719;49.832;8.748;2024-03-08T07:24:08;99148.56;;;1.63;74.71
86044;BME280;76719;49.832;8.748;2024-03-08T07:29:27;99144.34;;;1.89;73.62
86044;BME280;76719;49.832;8.748;2024-03-08T07:34:29;99142.09;;;1.97;72.96
86044;BME280;76719;49.832;8.748;2024-03-08T07:39:33;99135.88;;;2.27;72.52
86044;BME280;76719;49.832;8.748;2024-03-08T07:44:34;99133.97;;;2.29;71.58
86044;BME280;76719;49.832;8.748;2024-03-08T07:49:36;99132.75;;;2.48;71.23
86044;BME280;76719;49.832;8.748;2024-03-08T07:54:39;99127.28;;;2.79;69.61
86044;BME280;76719;49.832;8.748;2024-03-08T07:59:41;99124.47;;;2.82;69.49
86044;BME280;76719;49.832;8.748;2024-03-08T08:04:42;99125.25;;;2.96;69.39
86044;BME280;76719;49.832;8.748;2024-03-08T08:09:46;99120.59;;;3.27;68.38
86044;BME280;76719;49.832;8.748;2024-03-08T08:14:47;99116.50;;;3.36;67.86
86044;BME280;76719;49.832;8.748;2024-03-08T08:19:50;99113.28;;;3.58;67.03
86044;BME280;76719;49.832;8.748;2024-03-08T08:24:53;99098.94;;;3.73;66.65
86044;BME280;76719;49.832;8.748;2024-03-08T08:29:54;99079.16;;;3.90;66.23
86044;BME280;76719;49.832;8.748;2024-03-08T08:34:57;99069.03;;;4.20;65.68
86044;BME280;76719;49.832;8.748;2024-03-08T08:40:01;99063.31;;;4.26;65.18
86044;BME280;76719;49.832;8.748;2024-03-08T08:45:09;99062.53;;;4.37;63.87
86044;BME280;76719;49.832;8.748;2024-03-08T08:50:11;99054.25;;;4.42;63.74
86044;BME280;76719;49.832;8.748;2024-03-08T08:55:14;99057.59;;;4.57;62.95
86044;BME280;76719;49.832;8.748;2024-03-08T09:00:16;99053.44;;;4.89;62.18
86044;BME280;76719;49.832;8.748;2024-03-08T09:05:19;99040.06;;;4.78;62.14
86044;BME280;76719;49.832;8.748;2024-03-08T09:10:23;99028.50;;;4.90;61.99
86044;BME280;76719;49.832;8.748;2024-03-08T09:15:24;99029.06;;;5.07;61.60
86044;BME280;76719;49.832;8.748;2024-03-08T09:20:28;99033.94;;;5.13;60.64
86044;BME280;76719;49.832;8.748;2024-03-08T09:25:33;99031.66;;;5.19;60.31
86044;BME280;76719;49.832;8.748;2024-03-08T09:30:34;99021.72;;;5.21;60.80
86044;BME280;76719;49.832;8.748;2024-03-08T09:35:37;99024.81;;;5.28;60.81
86044;BME280;76719;49.832;8.748;2024-03-08T09:40:40;99008.22;;;5.36;59.71
86044;BME280;76719;49.832;8.748;2024-03-08T09:45:42;98998.22;;;5.62;60.11
86044;BME280;76719;49.832;8.748;2024-03-08T09:50:45;98986.16;;;5.91;58.13
86044;BME280;76719;49.832;8.748;2024-03-08T10:01:45;98967.84;;;5.98;58.01
86044;BME280;76719;49.832;8.748;2024-03-08T10:06:46;98961.44;;;6.00;58.70
86044;BME280;76719;49.832;8.748;2024-03-08T10:11:48;98955.06;;;6.46;56.77
86044;BME280;76719;49.832;8.748;2024-03-08T10:16:51;98952.72;;;6.64;56.62
86044;BME280;76719;49.832;8.748;2024-03-08T10:21:53;98949.34;;;6.83;56.08
86044;BME280;76719;49.832;8.748;2024-03-08T10:26:58;98941.50;;;7.03;54.47
86044;BME280;76719;49.832;8.748;2024-03-08T10:32:01;98939.25;;;7.19;54.38
86044;BME280;76719;49.832;8.748;2024-03-08T10:37:07;98929.06;;;7.13;54.28
86044;BME280;76719;49.832;8.748;2024-03-08T10:42:15;98925.28;;;7.36;54.27
86044;BME280;76719;49.832;8.748;2024-03-08T10:47:26;98926.72;;;7.40;53.18
86044;BME280;76719;49.832;8.748;2024-03-08T10:52:29;98913.31;;;7.61;53.94
86044;BME280;76719;49.832;8.748;2024-03-08T10:57:32;98913.31;;;7.61;52.03
86044;BME280;76719;49.832;8.748;2024-03-08T11:02:35;98911.88;;;7.57;52.81
86044;BME280;76719;49.832;8.748;2024-03-08T11:07:40;98907.59;;;7.75;52.45
86044;BME280;76719;49.832;8.748;2024-03-08T11:12:42;98891.22;;;7.99;51.34
86044;BME280;76719;49.832;8.748;2024-03-08T11:17:48;98889.22;;;7.92;50.59
86044;BME280;76719;49.832;8.748;2024-03-08T11:22:52;98881.38;;;8.10;51.30
86044;BME280;76719;49.832;8.748;2024-03-08T11:28:06;98872.75;;;8.66;51.55
86044;BME280;76719;49.832;8.748;2024-03-08T11:33:12;98862.03;;;8.56;49.34
86044;BME280;76719;49.832;8.748;2024-03-08T11:38:14;98858.34;;;8.86;49.37
86044;BME280;76719;49.832;8.748;2024-03-08T11:43:16;98855.53;;;8.39;50.25
86044;BME280;76719;49.832;8.748;2024-03-08T11:48:19;98851.88;;;8.89;49.97
86044;BME280;76719;49.832;8.748;2024-03-08T11:53:21;98843.97;;;8.87;47.40
86044;BME280;76719;49.832;8.748;2024-03-08T11:58:22;98835.59;;;9.19;47.95
86044;BME280;76719;49.832;8.748;2024-03-08T12:03:25;98841.63;;;9.31;48.20
86044;BME280;76719;49.832;8.748;2024-03-08T12:08:27;98824.88;;;9.19;48.47
86044;BME280;76719;49.832;8.748;2024-03-08T12:13:31;98818.75;;;9.37;48.04
86044;BME280;76719;49.832;8.748;2024-03-08T12:18:35;98811.63;;;9.83;47.97
86044;BME280;76719;49.832;8.748;2024-03-08T12:23:38;98798.34;;;9.54;46.37
86044;BME280;76719;49.832;8.748;2024-03-08T12:28:40;98794.25;;;10.05;45.85
86044;BME280;76719;49.832;8.748;2024-03-08T12:33:50;98790.91;;;9.93;45.71
86044;BME280;76719;49.832;8.748;2024-03-08T12:38:53;98783.28;;;10.16;45.83
86044;BME280;76719;49.832;8.748;2024-03-08T12:43:55;98767.13;;;10.25;45.87
86044;BME280;76719;49.832;8.748;2024-03-08T12:48:58;98767.53;;;10.74;45.00
86044;BME280;76719;49.832;8.748;2024-03-08T12:54:00;98745.09;;;10.84;44.93
86044;BME280;76719;49.832;8.748;2024-03-08T12:59:02;98731.38;;;10.69;44.56
86044;BME280;76719;49.832;8.748;2024-03-08T13:04:06;98736.69;;;10.61;44.92
86044;BME280;76719;49.832;8.748;2024-03-08T13:09:11;98733.31;;;10.59;45.59
86044;BME280;76719;49.832;8.748;2024-03-08T13:14:12;98727.91;;;11.02;45.19
86044;BME280;76719;49.832;8.748;2024-03-08T13:19:16;98720.22;;;11.16;43.15
86044;BME280;76719;49.832;8.748;2024-03-08T13:24:17;98723.59;;;10.84;44.32
86044;BME280;76719;49.832;8.748;2024-03-08T13:29:20;98708.06;;;11.04;44.04
86044;BME280;76719;49.832;8.748;2024-03-08T13:34:22;98707.66;;;10.90;43.58
86044;BME280;76719;49.832;8.748;2024-03-08T13:39:29;98698.31;;;11.02;43.52
86044;BME280;76719;49.832;8.748;2024-03-08T13:44:37;98686.72;;;11.02;43.85
86044;BME280;76719;49.832;8.748;2024-03-08T13:49:40;98666.19;;;10.67;44.97
86044;BME280;76719;49.832;8.748;2024-03-08T13:54:41;98663.09;;;10.54;45.33
86044;BME280;76719;49.832;8.748;2024-03-08T13:59:43;98641.97;;;10.59;45.11
86044;BME280;76719;49.832;8.748;2024-03-08T14:04:45;98652.47;;;10.78;45.20
86044;BME280;76719;49.832;8.748;2024-03-08T14:09:47;98629.53;;;10.92;44.73
86044;BME280;76719;49.832;8.748;2024-03-08T14:14:48;98625.09;;;11.25;44.43
86044;BME280;76719;49.832;8.748;2024-03-08T14:19:51;98603.25;;;11.28;44.82
86044;BME280;76719;49.832;8.748;2024-03-08T14:24:52;98601.25;;;11.38;43.77
86044;BME280;76719;49.832;8.748;2024-03-08T14:29:56;98597.59;;;10.89;45.45
86044;BME280;76719;49.832;8.748;2024-03-08T14:34:59;98586.88;;;10.97;45.08
86044;BME280;76719;49.832;8.748;2024-03-08T14:40:01;98573.78;;;11.02;45.22
86044;BME280;76719;49.832;8.748;2024-03-08T14:45:06;98570.75;;;10.97;43.65
86044;BME280;76719;49.832;8.748;2024-03-08T14:50:10;98563.03;;;11.10;44.22
86044;BME280;76719;49.832;8.748;2024-03-08T14:55:13;98558.50;;;11.11;43.75
86044;BME280;76719;49.832;8.748;2024-03-08T15:06:12;98551.09;;;11.13;43.11
86044;BME280;76719;49.832;8.748;2024-03-08T15:11:15;98534.78;;;11.06;43.50
86044;BME280;76719;49.832;8.748;2024-03-08T15:16:21;98534.66;;;11.32;42.64
86044;BME280;76719;49.832;8.748;2024-03-08T15:27:22;98523.91;;;11.32;41.76
86044;BME280;76719;49.832;8.748;2024-03-08T15:32:24;98528.06;;;11.10;41.76
86044;BME280;76719;49.832;8.748;2024-03-08T15:37:27;98529.13;;;11.17;41.24
86044;BME280;76719;49.832;8.748;2024-03-08T15:42:31;98523.88;;;11.16;40.49
86044;BME280;76719;49.832;8.748;2024-03-08T15:53:30;98500.28;;;13.80;34.91
86044;BME280;76719;49.832;8.748;2024-03-08T15:59:03;98499.88;;;13.68;33.97
86044;BME280;76719;49.832;8.748;2024-03-08T16:04:06;98496.63;;;12.17;37.25
86044;BME280;76719;49.832;8.748;2024-03-08T16:15:08;98491.28;;;11.92;38.54
86044;BME280;76719;49.832;8.748;2024-03-08T16:20:10;98476.41;;;14.06;33.68
86044;BME280;76719;49.832;8.748;2024-03-08T16:25:14;98480.03;;;14.28;32.62
86044;BME280;76719;49.832;8.748;2024-03-08T16:30:20;98461.13;;;14.58;32.06
86044;BME280;76719;49.832;8.748;2024-03-08T16:35:22;98465.22;;;13.71;33.66
86044;BME280;76719;49.832;8.748;2024-03-08T16:40:23;98459.72;;;12.96;34.62
86044;BME280;76719;49.832;8.748;2024-03-08T16:45:26;98465.75;;;11.56;38.20
86044;BME280;76719;49.832;8.748;2024-03-08T16:50:28;98459.78;;;10.87;39.75
86044;BME280;76719;49.832;8.748;2024-03-08T16:55:31;98462.19;;;10.13;42.30
86044;BME280;76719;49.832;8.748;2024-03-08T17:00:35;98461.94;;;9.46;44.84
86044;BME280;76719;49.832;8.748;2024-03-08T17:05:36;98461.97;;;8.93;45.78
86044;BME280;76719;49.832;8.748;2024-03-08T17:10:39;98452.13;;;8.66;47.45
86044;BME280;76719;49.832;8.748;2024-03-08T17:15:42;98457.84;;;8.25;49.62
86044;BME280;76719;49.832;8.748;2024-03-08T17:20:44;98453.38;;;8.16;48.69
86044;BME280;76719;49.832;8.748;2024-03-08T17:25:45;98443.91;;;7.94;50.72
86044;BME280;76719;49.832;8.748;2024-03-08T17:30:49;98453.41;;;7.69;51.43
86044;BME280;76719;49.832;8.748;2024-03-08T17:35:51;98444.41;;;7.70;49.93
86044;BME280;76719;49.832;8.748;2024-03-08T17:40:53;98451.50;;;7.42;51.10
86044;BME280;76719;49.832;8.748;2024-03-08T17:45:55;98456.03;;;7.32;51.80
86044;BME280;76719;49.832;8.748;2024-03-08T17:50:58;98455.03;;;7.23;50.91
86044;BME280;76719;49.832;8.748;2024-03-08T17:55:59;98453.66;;;7.10;52.26
86044;BME280;76719;49.832;8.748;2024-03-08T18:01:02;98455.91;;;7.14;50.53
86044;BME280;76719;49.832;8.748;2024-03-08T18:06:04;98451.53;;;7.13;51.52
86044;BME280;76719;49.832;8.748;2024-03-08T18:11:06;98447.88;;;6.95;52.98
86044;BME280;76719;49.832;8.748;2024-03-08T18:16:09;98451.41;;;6.76;52.84
86044;BME280;76719;49.832;8.748;2024-03-08T18:21:11;98447.84;;;6.66;51.61
86044;BME280;76719;49.832;8.748;2024-03-08T18:26:13;98440.25;;;6.51;53.41
86044;BME280;76719;49.832;8.748;2024-03-08T18:31:15;98437.25;;;6.25;55.33
86044;BME280;76719;49.832;8.748;2024-03-08T18:36:17;98441.75;;;6.25;54.41
86044;BME280;76719;49.832;8.748;2024-03-08T18:41:20;98438.13;;;6.45;54.98
86044;BME280;76719;49.832;8.748;2024-03-08T18:46:23;98428.63;;;6.82;54.07
86044;BME280;76719;49.832;8.748;2024-03-08T18:51:26;98412.59;;;6.82;53.72
86044;BME280;76719;49.832;8.748;2024-03-08T18:56:27;98420.56;;;6.33;54.94
86044;BME280;76719;49.832;8.748;2024-03-08T19:01:31;98411.06;;;6.00;56.68
86044;BME280;76719;49.832;8.748;2024-03-08T19:06:36;98407.09;;;5.94;57.97
86044;BME280;76719;49.832;8.748;2024-03-08T19:11:38;98409.41;;;5.78;58.34
86044;BME280;76719;49.832;8.748;2024-03-08T19:16:41;98411.38;;;5.86;58.60
86044;BME280;76719;49.832;8.748;2024-03-08T19:21:45;98413.59;;;5.81;58.64
86044;BME280;76719;49.832;8.748;2024-03-08T19:26:46;98410.28;;;5.58;60.08
86044;BME280;76719;49.832;8.748;2024-03-08T19:31:50;98413.47;;;5.51;60.77
86044;BME280;76719;49.832;8.748;2024-03-08T19:36:51;98410.47;;;5.35;61.35
86044;BME280;76719;49.832;8.748;2024-03-08T19:41:54;98411.41;;;5.13;62.18
86044;BME280;76719;49.832;8.748;2024-03-08T19:46:57;98410.81;;;5.10;62.40
86044;BME280;76719;49.832;8.748;2024-03-08T19:51:58;98411.16;;;4.95;62.95
86044;BME280;76719;49.832;8.748;2024-03-08T19:57:00;98421.72;;;4.65;64.13
86044;BME280;76719;49.832;8.748;2024-03-08T20:02:08;98410.16;;;4.55;64.75
86044;BME280;76719;49.832;8.748;2024-03-08T20:07:10;98411.16;;;4.42;65.16
86044;BME280;76719;49.832;8.748;2024-03-08T20:12:13;98410.31;;;4.42;65.36
86044;BME280;76719;49.832;8.748;2024-03-08T20:17:18;98411.63;;;4.36;65.63
86044;BME280;76719;49.832;8.748;2024-03-08T20:22:19;98409.72;;;4.38;65.33
86044;BME280;76719;49.832;8.748;2024-03-08T20:27:21;98404.44;;;4.59;64.29
86044;BME280;76719;49.832;8.748;2024-03-08T20:32:25;98410.22;;;4.64;63.97
86044;BME280;76719;49.832;8.748;2024-03-08T20:37:27;98413.16;;;4.50;64.82
86044;BME280;76719;49.832;8.748;2024-03-08T20:42:30;98412.97;;;4.74;63.85
86044;BME280;76719;49.832;8.748;2024-03-08T20:47:33;98404.38;;;4.70;64.03
86044;BME280;76719;49.832;8.748;2024-03-08T20:52:36;98401.69;;;4.82;63.22
86044;BME280;76719;49.832;8.748;2024-03-08T20:57:38;98395.72;;;4.89;63.24
86044;BME280;76719;49.832;8.748;2024-03-08T21:02:41;98385.13;;;5.20;62.86
86044;BME280;76719;49.832;8.748;2024-03-08T21:07:43;98389.19;;;5.45;62.66
86044;BME280;76719;49.832;8.748;2024-03-08T21:12:45;98391.59;;;5.48;62.72
86044;BME280;76719;49.832;8.748;2024-03-08T21:17:53;98372.31;;;5.65;62.37
86044;BME280;76719;49.832;8.748;2024-03-08T21:22:54;98374.66;;;5.59;62.35
86044;BME280;76719;49.832;8.748;2024-03-08T21:27:57;98375.63;;;5.58;62.15
86044;BME280;76719;49.832;8.748;2024-03-08T21:33:00;98369.22;;;5.39;62.97
86044;BME280;76719;49.832;8.748;2024-03-08T21:38:04;98370.03;;;5.30;63.50
86044;BME280;76719;49.832;8.748;2024-03-08T21:43:06;98366.66;;;5.28;62.97
86044;BME280;76719;49.832;8.748;2024-03-08T21:48:11;98367.84;;;5.14;64.46
86044;BME280;76719;49.832;8.748;2024-03-08T21:53:12;98373.44;;;5.11;63.95
86044;BME280;76719;49.832;8.748;2024-03-08T21:58:16;98374.41;;;5.10;63.74
86044;BME280;76719;49.832;8.748;2024-03-08T22:03:20;98378.31;;;5.06;63.74
86044;BME280;76719;49.832;8.748;2024-03-08T22:08:22;98372.00;;;5.07;63.77
86044;BME280;76719;49.832;8.748;2024-03-08T22:13:23;98375.50;;;4.87;64.81
86044;BME280;76719;49.832;8.748;2024-03-08T22:18:26;98371.16;;;4.86;64.71
86044;BME280;76719;49.832;8.748;2024-03-08T22:23:32;98365.06;;;4.95;64.06
86044;BME280;76719;49.832;8.748;2024-03-08T22:28:33;98375.38;;;4.67;65.56
86044;BME280;76719;49.832;8.748;2024-03-08T22:33:36;98381.06;;;4.63;65.61
86044;BME280;76719;49.832;8.748;2024-03-08T22:38:39;98380.50;;;4.59;65.40
86044;BME280;76719;49.832;8.748;2024-03-08T22:43:40;98378.94;;;4.45;65.75
86044;BME280;76719;49.832;8.748;2024-03-08T22:48:45;98391.19;;;4.37;66.52
86044;BME280;76719;49.832;8.748;2024-03-08T22:53:47;98365.34;;;4.60;65.31
86044;BME280;76719;49.832;8.748;2024-03-08T22:58:48;98383.25;;;4.58;65.54
86044;BME280;76719;49.832;8.748;2024-03-08T23:03:51;98373.63;;;4.45;65.83
86044;BME280;76719;49.832;8.748;2024-03-08T23:08:54;98375.06;;;4.49;65.61
86044;BME280;76719;49.832;8.748;2024-03-08T23:13:56;98364.94;;;4.43;65.84
86044;BME280;76719;49.832;8.748;2024-03-08T23:18:59;98364.69;;;4.46;65.64
86044;BME280;76719;49.832;8.748;2024-03-08T23:24:00;98366.31;;;4.38;66.03
86044;BME280;76719;49.832;8.748;2024-03-08T23:29:02;98366.78;;;4.32;66.18
86044;BME280;76719;49.832;8.748;2024-03-08T23:34:05;98352.44;;;4.23;66.23
86044;BME280;76719;49.832;8.748;2024-03-08T23:39:08;98350.38;;;4.26;66.66
86044;BME280;76719;49.832;8.748;2024-03-08T23:44:12;98353.44;;;4.11;66.96
86044;BME280;76719;49.832;8.748;2024-03-08T23:49:15;98363.34;;;4.09;66.91
86044;BME280;76719;49.832;8.748;2024-03-08T23:54:17;98354.69;;;3.95;68.13
86044;BME280;76719;49.832;8.748;2024-03-08T23:59:22;98353.72;;;3.96;66.95
